RUG Airport (Rugby Muni) Information

FAA: RUG - ICAO: KRUG

RUG Airport Location

State North Dakota
County Pierce
City Rugby
RUG Airport is 2 miles northwest of Rugby, ND.
Latitude 48-23-25.3000N
Longitude 100-01-27.4000W
Elevation 1,549ft

KRUG Airport METARs

METAR KRUG 280035Z AUTO 21005KT 10SM CLR 09/05 A2969 RMK AO2
Altimeter 29.69"
Temperature 9.0°C (48.2°F)
Wind 210° at 5KT
Clouds Skies are clear.
Visibility 10.0mi
Time observed: 2021-10-28T00:35:00Z

RUG Airport Details

Status Operational
Activation N/A
Ownership Public
Usage Public
Chart TWIN CITIES
ATC on-site No
Beacon schedule sunset-sunrise
Beacon color clear green

RUG Airport Contacts

Owner RUGBY ARPT AUTH
Owner address 2830 HWY 2 WEST, RUGBY, ND 58368
Owner phone 701-776-5746
Manager TIM MCPHERSON
Manager address 14269 17TH ST S.E., PAGE, ND 58064
Manager phone 701-668-2302

RUG Airport (Rugby Muni) Radio Frequencies

RUG (Airport) Radio Frequencies

UNICOM 122.8
Common traffic advisory frequency (CTAF) 122.8